sensor_id;sensor_type;location;lat;lon;timestamp;pressure;altitude;pressure_sealevel;temperature;humidity
21960;BME280;11144;43.030;25.108;2022-09-01T00:00:44;99028.38;;;20.65;100.00
21960;BME280;11144;43.030;25.108;2022-09-01T00:02:20;99030.06;;;20.66;100.00
21960;BME280;11144;43.030;25.108;2022-09-01T00:03:58;99031.75;;;20.67;100.00
21960;BME280;11144;43.030;25.108;2022-09-01T00:05:33;99032.63;;;20.67;100.00
21960;BME280;11144;43.030;25.108;2022-09-01T00:07:09;99041.69;;;20.66;100.00
21960;BME280;11144;43.030;25.108;2022-09-01T00:08:43;99044.13;;;20.58;100.00
21960;BME280;11144;43.030;25.108;2022-09-01T00:10:16;99046.91;;;20.57;100.00
21960;BME280;11144;43.030;25.108;2022-09-01T00:11:52;99053.41;;;20.54;100.00
21960;BME280;11144;43.030;25.108;2022-09-01T00:13:26;99050.84;;;20.53;100.00
21960;BME280;11144;43.030;25.108;2022-09-01T00:14:58;99056.22;;;20.53;100.00
21960;BME280;11144;43.030;25.108;2022-09-01T00:16:32;99043.28;;;20.47;100.00
21960;BME280;11144;43.030;25.108;2022-09-01T00:18:05;99038.38;;;20.52;100.00
21960;BME280;11144;43.030;25.108;2022-09-01T00:19:38;99034.72;;;20.53;100.00
21960;BME280;11144;43.030;25.108;2022-09-01T00:21:12;99040.09;;;20.53;100.00
21960;BME280;11144;43.030;25.108;2022-09-01T00:22:46;99034.72;;;20.53;100.00
21960;BME280;11144;43.030;25.108;2022-09-01T00:24:20;99033.13;;;20.50;100.00
21960;BME280;11144;43.030;25.108;2022-09-01T00:25:54;99043.75;;;20.52;100.00
21960;BME280;11144;43.030;25.108;2022-09-01T00:27:27;99044.00;;;20.49;100.00
21960;BME280;11144;43.030;25.108;2022-09-01T00:29:02;99038.91;;;20.46;100.00
21960;BME280;11144;43.030;25.108;2022-09-01T00:30:35;99036.69;;;20.40;100.00
21960;BME280;11144;43.030;25.108;2022-09-01T00:32:09;99032.56;;;20.36;100.00
21960;BME280;11144;43.030;25.108;2022-09-01T00:33:42;99035.94;;;20.38;100.00
21960;BME280;11144;43.030;25.108;2022-09-01T00:35:17;99034.00;;;20.40;100.00
21960;BME280;11144;43.030;25.108;2022-09-01T00:36:51;99041.09;;;20.41;100.00
21960;BME280;11144;43.030;25.108;2022-09-01T00:38:26;99044.50;;;20.43;100.00
21960;BME280;11144;43.030;25.108;2022-09-01T00:40:00;99040.84;;;20.44;100.00
21960;BME280;11144;43.030;25.108;2022-09-01T00:41:36;99041.59;;;20.46;100.00
21960;BME280;11144;43.030;25.108;2022-09-01T00:43:11;99039.25;;;20.41;100.00
21960;BME280;11144;43.030;25.108;2022-09-01T00:44:45;99032.31;;;20.39;100.00
21960;BME280;11144;43.030;25.108;2022-09-01T00:46:21;99037.16;;;20.45;100.00
21960;BME280;11144;43.030;25.108;2022-09-01T00:47:59;99044.28;;;20.46;100.00
21960;BME280;11144;43.030;25.108;2022-09-01T00:49:39;99023.25;;;20.40;100.00
21960;BME280;11144;43.030;25.108;2022-09-01T00:51:14;99036.94;;;20.48;100.00
21960;BME280;11144;43.030;25.108;2022-09-01T00:52:49;99035.47;;;20.44;100.00
21960;BME280;11144;43.030;25.108;2022-09-01T00:54:29;99041.09;;;20.41;100.00
21960;BME280;11144;43.030;25.108;2022-09-01T00:56:04;99035.13;;;20.37;100.00
21960;BME280;11144;43.030;25.108;2022-09-01T00:57:38;99033.78;;;20.32;100.00
21960;BME280;11144;43.030;25.108;2022-09-01T00:59:13;99035.13;;;20.37;100.00
21960;BME280;11144;43.030;25.108;2022-09-01T01:00:48;99032.56;;;20.36;100.00
21960;BME280;11144;43.030;25.108;2022-09-01T01:02:24;99027.41;;;20.33;100.00
21960;BME280;11144;43.030;25.108;2022-09-01T01:03:57;99029.97;;;20.34;100.00
21960;BME280;11144;43.030;25.108;2022-09-01T01:05:36;99028.63;;;20.29;100.00
21960;BME280;11144;43.030;25.108;2022-09-01T01:07:11;99036.69;;;20.29;100.00
21960;BME280;11144;43.030;25.108;2022-09-01T01:08:46;99040.38;;;20.28;100.00
21960;BME280;11144;43.030;25.108;2022-09-01T01:10:33;99029.88;;;20.25;100.00
21960;BME280;11144;43.030;25.108;2022-09-01T01:12:09;99029.88;;;20.25;100.00
21960;BME280;11144;43.030;25.108;2022-09-01T01:13:51;99036.34;;;20.22;100.00
21960;BME280;11144;43.030;25.108;2022-09-01T01:15:23;99028.41;;;20.21;100.00
21960;BME280;11144;43.030;25.108;2022-09-01T01:16:58;99030.09;;;20.22;100.00
21960;BME280;11144;43.030;25.108;2022-09-01T01:18:31;99037.41;;;20.20;100.00
21960;BME280;11144;43.030;25.108;2022-09-01T01:20:06;99028.00;;;20.14;100.00
21960;BME280;11144;43.030;25.108;2022-09-01T01:21:59;99035.34;;;20.12;100.00
21960;BME280;11144;43.030;25.108;2022-09-01T01:23:53;99031.53;;;20.03;100.00
21960;BME280;11144;43.030;25.108;2022-09-01T01:25:32;99033.72;;;19.98;100.00
21960;BME280;11144;43.030;25.108;2022-09-01T01:27:05;99031.63;;;19.91;100.00
21960;BME280;11144;43.030;25.108;2022-09-01T01:28:40;99025.66;;;19.87;100.00
21960;BME280;11144;43.030;25.108;2022-09-01T01:30:17;99018.56;;;19.86;100.00
21960;BME280;11144;43.030;25.108;2022-09-01T01:31:52;99020.53;;;19.84;100.00
21960;BME280;11144;43.030;25.108;2022-09-01T01:33:28;99020.75;;;19.81;100.00
21960;BME280;11144;43.030;25.108;2022-09-01T01:35:02;99021.75;;;19.80;100.00
21960;BME280;11144;43.030;25.108;2022-09-01T01:36:37;99020.38;;;19.75;100.00
21960;BME280;11144;43.030;25.108;2022-09-01T01:38:18;99021.50;;;19.72;100.00
21960;BME280;11144;43.030;25.108;2022-09-01T01:39:55;99025.00;;;19.62;100.00
21960;BME280;11144;43.030;25.108;2022-09-01T01:41:29;99016.22;;;19.60;100.00
21960;BME280;11144;43.030;25.108;2022-09-01T01:43:05;99013.00;;;19.55;100.00
21960;BME280;11144;43.030;25.108;2022-09-01T01:44:38;99015.84;;;19.53;100.00
21960;BME280;11144;43.030;25.108;2022-09-01T01:46:13;99022.53;;;19.48;100.00
21960;BME280;11144;43.030;25.108;2022-09-01T01:47:52;99027.03;;;19.47;100.00
21960;BME280;11144;43.030;25.108;2022-09-01T01:49:28;99018.22;;;19.45;100.00
21960;BME280;11144;43.030;25.108;2022-09-01T01:51:03;99023.59;;;19.45;100.00
21960;BME280;11144;43.030;25.108;2022-09-01T01:52:36;99013.13;;;19.42;100.00
21960;BME280;11144;43.030;25.108;2022-09-01T01:54:16;99016.75;;;19.41;100.00
21960;BME280;11144;43.030;25.108;2022-09-01T01:55:51;99015.81;;;19.42;100.00
21960;BME280;11144;43.030;25.108;2022-09-01T01:57:27;99010.78;;;19.38;100.00
21960;BME280;11144;43.030;25.108;2022-09-01T01:59:02;99010.78;;;19.38;100.00
21960;BME280;11144;43.030;25.108;2022-09-01T02:00:39;99010.16;;;19.34;100.00
21960;BME280;11144;43.030;25.108;2022-09-01T02:02:15;99020.88;;;19.34;100.00
21960;BME280;11144;43.030;25.108;2022-09-01T02:03:50;99012.75;;;19.23;100.00
21960;BME280;11144;43.030;25.108;2022-09-01T02:05:26;99006.16;;;19.16;100.00
21960;BME280;11144;43.030;25.108;2022-09-01T02:07:00;99004.34;;;19.17;100.00
21960;BME280;11144;43.030;25.108;2022-09-01T02:08:35;99011.78;;;19.13;100.00
21960;BME280;11144;43.030;25.108;2022-09-01T02:10:09;99008.97;;;19.15;100.00
21960;BME280;11144;43.030;25.108;2022-09-01T02:11:43;99008.00;;;19.16;100.00
21960;BME280;11144;43.030;25.108;2022-09-01T02:13:21;99011.50;;;19.16;100.00
21960;BME280;11144;43.030;25.108;2022-09-01T02:15:03;99007.88;;;19.17;100.00
21960;BME280;11144;43.030;25.108;2022-09-01T02:16:38;99009.59;;;19.18;100.00
21960;BME280;11144;43.030;25.108;2022-09-01T02:18:14;99010.44;;;19.19;100.00
21960;BME280;11144;43.030;25.108;2022-09-01T02:19:49;99007.66;;;19.20;100.00
21960;BME280;11144;43.030;25.108;2022-09-01T02:21:28;99010.19;;;19.22;100.00
21960;BME280;11144;43.030;25.108;2022-09-01T02:23:02;99015.44;;;19.23;100.00
21960;BME280;11144;43.030;25.108;2022-09-01T02:24:40;99011.94;;;19.23;100.00
21960;BME280;11144;43.030;25.108;2022-09-01T02:26:20;99011.06;;;19.22;100.00
21960;BME280;11144;43.030;25.108;2022-09-01T02:27:57;99007.66;;;19.20;100.00
21960;BME280;11144;43.030;25.108;2022-09-01T02:29:34;99009.59;;;19.18;100.00
21960;BME280;11144;43.030;25.108;2022-09-01T02:31:14;99002.75;;;19.14;100.00
21960;BME280;11144;43.030;25.108;2022-09-01T02:32:47;99004.69;;;19.12;100.00
21960;BME280;11144;43.030;25.108;2022-09-01T02:34:22;99000.28;;;19.11;100.00
21960;BME280;11144;43.030;25.108;2022-09-01T02:35:59;99008.44;;;19.10;100.00
21960;BME280;11144;43.030;25.108;2022-09-01T02:37:32;98999.56;;;19.09;100.00
21960;BME280;11144;43.030;25.108;2022-09-01T02:39:05;98991.88;;;19.05;100.00
21960;BME280;11144;43.030;25.108;2022-09-01T02:40:39;99002.25;;;19.09;100.00
21960;BME280;11144;43.030;25.108;2022-09-01T02:42:16;99006.00;;;19.07;100.00
21960;BME280;11144;43.030;25.108;2022-09-01T02:43:53;99012.97;;;19.09;100.00
21960;BME280;11144;43.030;25.108;2022-09-01T02:45:27;98998.72;;;19.09;100.00
21960;BME280;11144;43.030;25.108;2022-09-01T02:47:01;99004.94;;;19.09;100.00
21960;BME280;11144;43.030;25.108;2022-09-01T02:48:43;98999.78;;;19.06;100.00
21960;BME280;11144;43.030;25.108;2022-09-01T02:50:18;99006.00;;;19.07;100.00
21960;BME280;11144;43.030;25.108;2022-09-01T02:51:54;99008.78;;;19.05;100.00
21960;BME280;11144;43.030;25.108;2022-09-01T02:53:34;99008.19;;;19.02;100.00
21960;BME280;11144;43.030;25.108;2022-09-01T02:55:09;99000.25;;;19.00;100.00
21960;BME280;11144;43.030;25.108;2022-09-01T02:56:43;99009.50;;;18.96;100.00
21960;BME280;11144;43.030;25.108;2022-09-01T02:58:17;99005.22;;;18.94;100.00
21960;BME280;11144;43.030;25.108;2022-09-01T02:59:57;99009.00;;;18.91;100.00
21960;BME280;11144;43.030;25.108;2022-09-01T03:01:32;99008.88;;;18.93;100.00
21960;BME280;11144;43.030;25.108;2022-09-01T03:03:06;99015.84;;;18.95;100.00
21960;BME280;11144;43.030;25.108;2022-09-01T03:04:39;99003.16;;;18.97;100.00
21960;BME280;11144;43.030;25.108;2022-09-01T03:06:14;99009.28;;;18.99;100.00
21960;BME280;11144;43.030;25.108;2022-09-01T03:07:53;99002.19;;;18.98;100.00
21960;BME280;11144;43.030;25.108;2022-09-01T03:09:31;99003.41;;;18.94;100.00
21960;BME280;11144;43.030;25.108;2022-09-01T03:11:06;98997.06;;;18.95;100.00
21960;BME280;11144;43.030;25.108;2022-09-01T03:12:44;99006.09;;;18.94;100.00
21960;BME280;11144;43.030;25.108;2022-09-01T03:14:20;99004.84;;;18.87;100.00
21960;BME280;11144;43.030;25.108;2022-09-01T03:15:55;99005.66;;;18.88;100.00
21960;BME280;11144;43.030;25.108;2022-09-01T03:17:29;99005.66;;;18.88;100.00
21960;BME280;11144;43.030;25.108;2022-09-01T03:19:03;98995.75;;;18.77;100.00
21960;BME280;11144;43.030;25.108;2022-09-01T03:20:41;99015.59;;;18.75;100.00
21960;BME280;11144;43.030;25.108;2022-09-01T03:22:17;99015.66;;;18.62;100.00
21960;BME280;11144;43.030;25.108;2022-09-01T03:23:51;99023.50;;;18.53;100.00
21960;BME280;11144;43.030;25.108;2022-09-01T03:25:25;99016.22;;;18.42;100.00
21960;BME280;11144;43.030;25.108;2022-09-01T03:26:59;99031.56;;;18.40;100.00
21960;BME280;11144;43.030;25.108;2022-09-01T03:28:33;99018.78;;;18.31;100.00
21960;BME280;11144;43.030;25.108;2022-09-01T03:30:06;99019.47;;;18.22;100.00
21960;BME280;11144;43.030;25.108;2022-09-01T03:31:40;99013.13;;;18.23;100.00
21960;BME280;11144;43.030;25.108;2022-09-01T03:33:16;99029.50;;;18.31;100.00
21960;BME280;11144;43.030;25.108;2022-09-01T03:34:49;99031.56;;;18.40;100.00
21960;BME280;11144;43.030;25.108;2022-09-01T03:36:23;99020.63;;;18.43;100.00
21960;BME280;11144;43.030;25.108;2022-09-01T03:37:57;99025.75;;;18.46;100.00
21960;BME280;11144;43.030;25.108;2022-09-01T03:39:30;99024.03;;;18.45;100.00
21960;BME280;11144;43.030;25.108;2022-09-01T03:41:04;99023.94;;;18.47;100.00
21960;BME280;11144;43.030;25.108;2022-09-01T03:42:39;99025.88;;;18.45;100.00
21960;BME280;11144;43.030;25.108;2022-09-01T03:44:12;99020.84;;;18.40;100.00
21960;BME280;11144;43.030;25.108;2022-09-01T03:45:48;99017.19;;;18.41;100.00
21960;BME280;11144;43.030;25.108;2022-09-01T03:47:21;99016.00;;;18.45;100.00
21960;BME280;11144;43.030;25.108;2022-09-01T03:48:58;99012.88;;;18.51;100.00
21960;BME280;11144;43.030;25.108;2022-09-01T03:50:36;99024.00;;;18.58;100.00
21960;BME280;11144;43.030;25.108;2022-09-01T03:52:12;99025.59;;;18.60;100.00
21960;BME280;11144;43.030;25.108;2022-09-01T03:53:45;99026.34;;;18.62;100.00
21960;BME280;11144;43.030;25.108;2022-09-01T03:55:21;99020.34;;;18.59;100.00
21960;BME280;11144;43.030;25.108;2022-09-01T03:56:55;99044.13;;;18.63;100.00
21960;BME280;11144;43.030;25.108;2022-09-01T03:58:31;99044.63;;;18.68;100.00
21960;BME280;11144;43.030;25.108;2022-09-01T04:00:06;99039.81;;;18.73;100.00
21960;BME280;11144;43.030;25.108;2022-09-01T04:01:45;99034.47;;;18.73;100.00
21960;BME280;11144;43.030;25.108;2022-09-01T04:03:20;99040.09;;;18.81;100.00
21960;BME280;11144;43.030;25.108;2022-09-01T04:05:01;99038.91;;;18.85;100.00
21960;BME280;11144;43.030;25.108;2022-09-01T04:06:39;99035.50;;;18.83;100.00
21960;BME280;11144;43.030;25.108;2022-09-01T04:08:12;99039.31;;;18.92;100.00
21960;BME280;11144;43.030;25.108;2022-09-01T04:09:46;99054.34;;;18.94;100.00
21960;BME280;11144;43.030;25.108;2022-09-01T04:11:19;99053.13;;;18.98;100.00
21960;BME280;11144;43.030;25.108;2022-09-01T04:12:57;99055.56;;;19.01;100.00
21960;BME280;11144;43.030;25.108;2022-09-01T04:14:29;99048.28;;;19.03;100.00
21960;BME280;11144;43.030;25.108;2022-09-01T04:16:04;99044.22;;;18.98;100.00
21960;BME280;11144;43.030;25.108;2022-09-01T04:17:41;99055.56;;;19.01;100.00
21960;BME280;11144;43.030;25.108;2022-09-01T04:19:44;99056.81;;;19.08;100.00
21960;BME280;11144;43.030;25.108;2022-09-01T04:21:19;99060.25;;;19.10;100.00
21960;BME280;11144;43.030;25.108;2022-09-01T04:22:53;99066.59;;;19.09;100.00
21960;BME280;11144;43.030;25.108;2022-09-01T04:24:30;99061.97;;;19.11;100.00
21960;BME280;11144;43.030;25.108;2022-09-01T04:26:07;99070.09;;;19.10;100.00
21960;BME280;11144;43.030;25.108;2022-09-01T04:27:41;99063.44;;;19.15;100.00
21960;BME280;11144;43.030;25.108;2022-09-01T04:29:17;99067.59;;;19.19;100.00
21960;BME280;11144;43.030;25.108;2022-09-01T04:30:59;99065.63;;;19.10;100.00
21960;BME280;11144;43.030;25.108;2022-09-01T04:32:38;99066.00;;;19.17;100.00
21960;BME280;11144;43.030;25.108;2022-09-01T04:34:11;99073.06;;;19.18;100.00
21960;BME280;11144;43.030;25.108;2022-09-01T04:35:46;99070.75;;;19.13;100.00
21960;BME280;11144;43.030;25.108;2022-09-01T04:37:22;99074.50;;;19.11;100.00
21960;BME280;11144;43.030;25.108;2022-09-01T04:39:03;99081.59;;;19.12;100.00
21960;BME280;11144;43.030;25.108;2022-09-01T04:40:43;99082.31;;;19.14;100.00
21960;BME280;11144;43.030;25.108;2022-09-01T04:42:16;99081.00;;;19.19;100.00
21960;BME280;11144;43.030;25.108;2022-09-01T04:43:51;99089.59;;;19.24;100.00
21960;BME280;11144;43.030;25.108;2022-09-01T04:45:27;99082.06;;;19.29;100.00
21960;BME280;11144;43.030;25.108;2022-09-01T04:47:02;99085.50;;;19.31;100.00
21960;BME280;11144;43.030;25.108;2022-09-01T04:48:36;99076.00;;;19.38;100.00
21960;BME280;11144;43.030;25.108;2022-09-01T04:50:17;99077.66;;;19.52;100.00
21960;BME280;11144;43.030;25.108;2022-09-01T04:52:11;99075.00;;;19.63;100.00
21960;BME280;11144;43.030;25.108;2022-09-01T04:53:46;99061.22;;;19.67;100.00
21960;BME280;11144;43.030;25.108;2022-09-01T04:55:21;99070.28;;;19.77;100.00
21960;BME280;11144;43.030;25.108;2022-09-01T04:56:59;99064.94;;;19.88;100.00
21960;BME280;11144;43.030;25.108;2022-09-01T04:58:33;99068.13;;;19.93;100.00
21960;BME280;11144;43.030;25.108;2022-09-01T05:00:09;99080.09;;;20.00;100.00
21960;BME280;11144;43.030;25.108;2022-09-01T05:01:53;99080.38;;;20.20;100.00
21960;BME280;11144;43.030;25.108;2022-09-01T05:03:28;99067.94;;;20.41;100.00
21960;BME280;11144;43.030;25.108;2022-09-01T05:05:08;99070.16;;;20.58;100.00
21960;BME280;11144;43.030;25.108;2022-09-01T05:06:46;99068.66;;;20.76;100.00
21960;BME280;11144;43.030;25.108;2022-09-01T05:08:22;99065.97;;;20.98;100.00
21960;BME280;11144;43.030;25.108;2022-09-01T05:10:04;99073.69;;;21.23;100.00
21960;BME280;11144;43.030;25.108;2022-09-01T05:12:07;99067.91;;;21.38;100.00
21960;BME280;11144;43.030;25.108;2022-09-01T05:13:49;99059.94;;;21.37;100.00
21960;BME280;11144;43.030;25.108;2022-09-01T05:15:29;99058.50;;;21.33;100.00
21960;BME280;11144;43.030;25.108;2022-09-01T05:17:03;99045.44;;;21.28;100.00
21960;BME280;11144;43.030;25.108;2022-09-01T05:18:43;99054.75;;;21.24;100.00
21960;BME280;11144;43.030;25.108;2022-09-01T05:20:19;99053.38;;;21.30;100.00
21960;BME280;11144;43.030;25.108;2022-09-01T05:21:53;99050.94;;;21.27;100.00
21960;BME280;11144;43.030;25.108;2022-09-01T05:23:28;99047.13;;;21.09;100.00
21960;BME280;11144;43.030;25.108;2022-09-01T05:25:06;99050.28;;;21.03;100.00
21960;BME280;11144;43.030;25.108;2022-09-01T05:26:48;99052.00;;;21.04;100.00
21960;BME280;11144;43.030;25.108;2022-09-01T05:28:22;99053.97;;;21.02;100.00
21960;BME280;11144;43.030;25.108;2022-09-01T05:29:56;99055.44;;;21.06;100.00
21960;BME280;11144;43.030;25.108;2022-09-01T05:31:32;99053.97;;;21.02;100.00
21960;BME280;11144;43.030;25.108;2022-09-01T05:33:09;99041.16;;;20.94;100.00
21960;BME280;11144;43.030;25.108;2022-09-01T05:34:42;99060.19;;;21.02;100.00
21960;BME280;11144;43.030;25.108;2022-09-01T05:36:19;99065.84;;;20.99;100.00
21960;BME280;11144;43.030;25.108;2022-09-01T05:37:55;99061.53;;;20.97;100.00
21960;BME280;11144;43.030;25.108;2022-09-01T05:39:30;99063.28;;;20.98;100.00
21960;BME280;11144;43.030;25.108;2022-09-01T05:41:05;99067.78;;;20.97;100.00
21960;BME280;11144;43.030;25.108;2022-09-01T05:42:39;99056.91;;;20.99;100.00
21960;BME280;11144;43.030;25.108;2022-09-01T05:44:13;99059.34;;;21.02;100.00
21960;BME280;11144;43.030;25.108;2022-09-01T05:45:47;99057.59;;;21.12;100.00
21960;BME280;11144;43.030;25.108;2022-09-01T05:47:39;99054.66;;;21.15;100.00
21960;BME280;11144;43.030;25.108;2022-09-01T05:49:14;99056.38;;;21.16;100.00
21960;BME280;11144;43.030;25.108;2022-09-01T05:50:52;99053.91;;;21.24;100.00
21960;BME280;11144;43.030;25.108;2022-09-01T05:52:32;99058.25;;;21.36;100.00
21960;BME280;11144;43.030;25.108;2022-09-01T05:54:06;99054.31;;;21.40;100.00
21960;BME280;11144;43.030;25.108;2022-09-01T05:55:41;99056.97;;;21.51;100.00
21960;BME280;11144;43.030;25.108;2022-09-01T05:57:17;99059.09;;;21.68;100.00
21960;BME280;11144;43.030;25.108;2022-09-01T05:59:06;99043.44;;;21.62;100.00
21960;BME280;11144;43.030;25.108;2022-09-01T06:01:04;99068.84;;;21.80;100.00
21960;BME280;11144;43.030;25.108;2022-09-01T06:02:38;99054.50;;;21.79;100.00
21960;BME280;11144;43.030;25.108;2022-09-01T06:04:13;99065.88;;;21.83;100.00
21960;BME280;11144;43.030;25.108;2022-09-01T06:05:48;99066.31;;;21.88;100.00
21960;BME280;11144;43.030;25.108;2022-09-01T06:07:23;99061.06;;;21.86;100.00
21960;BME280;11144;43.030;25.108;2022-09-01T06:09:02;99061.25;;;21.94;100.00
21960;BME280;11144;43.030;25.108;2022-09-01T06:10:36;99060.34;;;22.05;100.00
21960;BME280;11144;43.030;25.108;2022-09-01T06:12:11;99056.84;;;22.14;100.00
21960;BME280;11144;43.030;25.108;2022-09-01T06:13:52;99062.59;;;22.30;100.00
21960;BME280;11144;43.030;25.108;2022-09-01T06:15:28;99059.84;;;22.20;100.00
21960;BME280;11144;43.030;25.108;2022-09-01T06:17:02;99062.34;;;22.33;100.00
21960;BME280;11144;43.030;25.108;2022-09-01T06:18:38;99063.97;;;22.45;100.00
21960;BME280;11144;43.030;25.108;2022-09-01T06:20:12;99059.47;;;22.55;100.00
21960;BME280;11144;43.030;25.108;2022-09-01T06:21:49;99066.56;;;22.95;100.00
21960;BME280;11144;43.030;25.108;2022-09-01T06:23:23;99063.94;;;23.24;100.00
21960;BME280;11144;43.030;25.108;2022-09-01T06:24:56;99065.38;;;23.57;100.00
21960;BME280;11144;43.030;25.108;2022-09-01T06:26:39;99068.38;;;24.01;100.00
21960;BME280;11144;43.030;25.108;2022-09-01T06:28:14;99068.78;;;24.52;100.00
21960;BME280;11144;43.030;25.108;2022-09-01T06:29:49;99077.03;;;25.14;100.00
21960;BME280;11144;43.030;25.108;2022-09-01T06:31:26;99062.34;;;25.69;100.00
21960;BME280;11144;43.030;25.108;2022-09-01T06:33:11;99053.84;;;26.25;100.00
21960;BME280;11144;43.030;25.108;2022-09-01T06:34:50;99050.56;;;26.73;100.00
21960;BME280;11144;43.030;25.108;2022-09-01T06:36:24;99050.09;;;27.27;100.00
21960;BME280;11144;43.030;25.108;2022-09-01T06:37:57;99051.84;;;27.52;100.00
21960;BME280;11144;43.030;25.108;2022-09-01T06:39:59;99037.28;;;27.85;100.00
21960;BME280;11144;43.030;25.108;2022-09-01T06:41:34;99056.31;;;28.17;100.00
21960;BME280;11144;43.030;25.108;2022-09-01T06:43:14;99046.72;;;28.53;100.00
21960;BME280;11144;43.030;25.108;2022-09-01T06:44:55;99035.66;;;28.54;100.00
21960;BME280;11144;43.030;25.108;2022-09-01T06:46:30;99023.91;;;28.62;100.00
21960;BME280;11144;43.030;25.108;2022-09-01T06:48:07;99019.53;;;28.45;100.00
21960;BME280;11144;43.030;25.108;2022-09-01T06:49:45;99025.34;;;28.26;100.00
21960;BME280;11144;43.030;25.108;2022-09-01T06:51:23;99007.66;;;28.22;100.00
21960;BME280;11144;43.030;25.108;2022-09-01T06:53:00;99016.31;;;28.33;100.00
21960;BME280;11144;43.030;25.108;2022-09-01T06:55:04;99014.88;;;28.61;100.00
21960;BME280;11144;43.030;25.108;2022-09-01T06:56:39;99002.94;;;28.70;100.00
21960;BME280;11144;43.030;25.108;2022-09-01T06:58:22;99011.47;;;28.98;100.00
21960;BME280;11144;43.030;25.108;2022-09-01T06:59:58;99008.28;;;29.25;100.00
21960;BME280;11144;43.030;25.108;2022-09-01T07:01:38;98996.19;;;29.50;100.00
21960;BME280;11144;43.030;25.108;2022-09-01T07:03:13;98988.16;;;29.71;100.00
21960;BME280;11144;43.030;25.108;2022-09-01T07:05:13;98997.00;;;29.96;100.00
21960;BME280;11144;43.030;25.108;2022-09-01T07:07:10;98982.91;;;29.70;100.00
21960;BME280;11144;43.030;25.108;2022-09-01T07:09:23;99002.06;;;29.99;100.00
21960;BME280;11144;43.030;25.108;2022-09-01T07:11:33;98983.75;;;30.07;100.00
21960;BME280;11144;43.030;25.108;2022-09-01T07:13:28;98985.75;;;29.76;100.00
21960;BME280;11144;43.030;25.108;2022-09-01T07:15:07;98985.06;;;29.60;100.00
21960;BME280;11144;43.030;25.108;2022-09-01T07:17:01;98988.16;;;29.94;100.00
21960;BME280;11144;43.030;25.108;2022-09-01T07:18:57;98987.84;;;30.26;100.00
21960;BME280;11144;43.030;25.108;2022-09-01T07:20:34;98981.34;;;30.41;100.00
21960;BME280;11144;43.030;25.108;2022-09-01T07:22:30;98973.06;;;30.49;100.00
21960;BME280;11144;43.030;25.108;2022-09-01T07:24:24;98969.09;;;30.37;100.00
21960;BME280;11144;43.030;25.108;2022-09-01T07:26:35;98972.47;;;30.68;100.00
21960;BME280;11144;43.030;25.108;2022-09-01T07:28:18;98965.59;;;30.87;100.00
21960;BME280;11144;43.030;25.108;2022-09-01T07:29:56;98957.56;;;31.00;100.00
21960;BME280;11144;43.030;25.108;2022-09-01T07:31:32;98951.03;;;31.01;100.00
21960;BME280;11144;43.030;25.108;2022-09-01T07:33:31;98965.22;;;31.25;100.00
21960;BME280;11144;43.030;25.108;2022-09-01T07:35:25;98962.84;;;31.22;100.00
21960;BME280;11144;43.030;25.108;2022-09-01T07:36:58;98953.13;;;31.34;100.00
21960;BME280;11144;43.030;25.108;2022-09-01T07:38:54;98954.72;;;31.50;100.00
21960;BME280;11144;43.030;25.108;2022-09-01T07:41:02;98947.81;;;31.54;100.00
21960;BME280;11144;43.030;25.108;2022-09-01T07:43:18;98941.91;;;31.50;100.00
21960;BME280;11144;43.030;25.108;2022-09-01T07:45:19;98945.41;;;31.65;100.00
21960;BME280;11144;43.030;25.108;2022-09-01T07:47:03;98948.81;;;31.67;100.00
21960;BME280;11144;43.030;25.108;2022-09-01T07:49:01;98936.69;;;31.55;100.00
21960;BME280;11144;43.030;25.108;2022-09-01T07:50:55;98942.19;;;30.99;100.00
21960;BME280;11144;43.030;25.108;2022-09-01T07:52:49;98927.53;;;30.85;100.00
21960;BME280;11144;43.030;25.108;2022-09-01T07:54:23;98927.53;;;30.85;100.00
21960;BME280;11144;43.030;25.108;2022-09-01T07:55:58;98925.00;;;31.05;100.00
21960;BME280;11144;43.030;25.108;2022-09-01T07:57:33;98933.78;;;31.36;100.00
21960;BME280;11144;43.030;25.108;2022-09-01T07:59:07;98932.69;;;31.30;100.00
21960;BME280;11144;43.030;25.108;2022-09-01T08:00:55;98926.00;;;31.60;100.00
21960;BME280;11144;43.030;25.108;2022-09-01T08:02:32;98922.31;;;31.74;100.00
21960;BME280;11144;43.030;25.108;2022-09-01T08:04:07;98932.19;;;31.97;100.00
21960;BME280;11144;43.030;25.108;2022-09-01T08:05:45;98920.09;;;32.12;100.00
21960;BME280;11144;43.030;25.108;2022-09-01T08:07:22;98916.09;;;32.42;100.00
21960;BME280;11144;43.030;25.108;2022-09-01T08:08:57;98921.53;;;32.36;100.00
21960;BME280;11144;43.030;25.108;2022-09-01T08:10:37;98909.44;;;32.24;100.00
21960;BME280;11144;43.030;25.108;2022-09-01T08:12:12;98913.47;;;32.28;100.00
21960;BME280;11144;43.030;25.108;2022-09-01T08:13:52;98911.88;;;32.40;100.00
21960;BME280;11144;43.030;25.108;2022-09-01T08:15:27;98905.97;;;32.36;100.00
21960;BME280;11144;43.030;25.108;2022-09-01T08:17:20;98918.72;;;32.63;100.00
21960;BME280;11144;43.030;25.108;2022-09-01T08:19:17;98901.47;;;32.76;100.00
21960;BME280;11144;43.030;25.108;2022-09-01T08:21:18;98899.91;;;33.01;100.00
21960;BME280;11144;43.030;25.108;2022-09-01T08:23:04;98900.78;;;33.08;100.00
21960;BME280;11144;43.030;25.108;2022-09-01T08:24:40;98902.66;;;33.01;100.00
21960;BME280;11144;43.030;25.108;2022-09-01T08:26:15;98891.63;;;32.88;100.00
21960;BME280;11144;43.030;25.108;2022-09-01T08:27:49;98887.66;;;33.03;100.00